sensor_id;sensor_type;location;lat;lon;timestamp;pressure;altitude;pressure_sealevel;temperature;humidity
31062;BME280;17724;53.546;9.974;2023-07-13T00:02:55;101210.09;;;19.35;88.46
31062;BME280;17724;53.546;9.974;2023-07-13T00:06:55;101213.09;;;19.39;89.62
31062;BME280;17724;53.546;9.974;2023-07-13T00:10:56;101208.13;;;19.36;89.78
31062;BME280;17724;53.546;9.974;2023-07-13T00:14:58;101212.03;;;19.35;90.11
31062;BME280;17724;53.546;9.974;2023-07-13T00:18:58;101205.13;;;19.32;90.14
31062;BME280;17724;53.546;9.974;2023-07-13T00:23:00;101212.66;;;19.32;91.01
31062;BME280;17724;53.546;9.974;2023-07-13T00:27:01;101221.53;;;19.34;90.91
31062;BME280;17724;53.546;9.974;2023-07-13T00:31:01;101214.69;;;19.26;91.60
31062;BME280;17724;53.546;9.974;2023-07-13T00:35:02;101219.34;;;19.31;92.04
31062;BME280;17724;53.546;9.974;2023-07-13T00:39:04;101215.13;;;19.19;93.78
31062;BME280;17724;53.546;9.974;2023-07-13T00:43:31;101219.06;;;19.32;94.48
31062;BME280;17724;53.546;9.974;2023-07-13T00:47:32;101229.13;;;19.14;95.65
31062;BME280;17724;53.546;9.974;2023-07-13T00:51:39;101228.63;;;19.12;96.10
31062;BME280;17724;53.546;9.974;2023-07-13T00:55:41;101226.97;;;19.11;96.36
31062;BME280;17724;53.546;9.974;2023-07-13T00:59:49;101222.81;;;18.76;98.95
31062;BME280;17724;53.546;9.974;2023-07-13T01:03:51;101223.31;;;18.78;100.00
31062;BME280;17724;53.546;9.974;2023-07-13T01:07:53;101216.06;;;18.96;99.34
31062;BME280;17724;53.546;9.974;2023-07-13T01:11:53;101231.16;;;18.95;98.83
31062;BME280;17724;53.546;9.974;2023-07-13T01:15:57;101227.03;;;19.06;98.81
31062;BME280;17724;53.546;9.974;2023-07-13T01:19:59;101227.38;;;18.86;99.29
31062;BME280;17724;53.546;9.974;2023-07-13T01:24:00;101227.25;;;18.77;99.69
31062;BME280;17724;53.546;9.974;2023-07-13T01:28:02;101226.09;;;18.78;100.00
31062;BME280;17724;53.546;9.974;2023-07-13T01:32:03;101228.50;;;18.47;100.00
31062;BME280;17724;53.546;9.974;2023-07-13T01:36:04;101228.06;;;18.59;100.00
31062;BME280;17724;53.546;9.974;2023-07-13T01:40:05;101229.19;;;18.58;100.00
31062;BME280;17724;53.546;9.974;2023-07-13T01:44:06;101223.63;;;18.20;99.17
31062;BME280;17724;53.546;9.974;2023-07-13T01:48:06;101221.13;;;18.37;98.91
31062;BME280;17724;53.546;9.974;2023-07-13T01:52:07;101228.75;;;18.32;98.67
31062;BME280;17724;53.546;9.974;2023-07-13T01:56:07;101220.84;;;18.20;98.48
31062;BME280;17724;53.546;9.974;2023-07-13T02:00:10;101214.66;;;18.04;100.00
31062;BME280;17724;53.546;9.974;2023-07-13T02:04:17;101220.22;;;18.04;100.00
31062;BME280;17724;53.546;9.974;2023-07-13T02:08:17;101221.88;;;18.05;100.00
31062;BME280;17724;53.546;9.974;2023-07-13T02:12:18;101226.28;;;18.06;99.20
31062;BME280;17724;53.546;9.974;2023-07-13T02:16:18;101233.50;;;18.07;98.26
31062;BME280;17724;53.546;9.974;2023-07-13T02:20:19;101231.00;;;18.30;97.69
31062;BME280;17724;53.546;9.974;2023-07-13T02:24:19;101237.59;;;18.15;96.42
31062;BME280;17724;53.546;9.974;2023-07-13T02:28:21;101237.00;;;18.18;96.13
31062;BME280;17724;53.546;9.974;2023-07-13T02:32:21;101239.84;;;18.13;95.70
31062;BME280;17724;53.546;9.974;2023-07-13T02:36:22;101218.97;;;18.15;95.35
31062;BME280;17724;53.546;9.974;2023-07-13T02:40:23;101227.44;;;18.05;95.17
31062;BME280;17724;53.546;9.974;2023-07-13T02:44:23;101233.31;;;18.22;94.88
31062;BME280;17724;53.546;9.974;2023-07-13T02:48:24;101227.03;;;18.36;94.65
31062;BME280;17724;53.546;9.974;2023-07-13T02:52:25;101226.63;;;18.24;94.79
31062;BME280;17724;53.546;9.974;2023-07-13T02:56:29;101236.72;;;18.19;94.46
31062;BME280;17724;53.546;9.974;2023-07-13T03:00:30;101237.34;;;17.92;93.61
31062;BME280;17724;53.546;9.974;2023-07-13T03:04:31;101237.41;;;17.87;94.70
31062;BME280;17724;53.546;9.974;2023-07-13T03:08:31;101230.75;;;17.83;93.36
31062;BME280;17724;53.546;9.974;2023-07-13T03:12:32;101232.25;;;17.76;93.42
31062;BME280;17724;53.546;9.974;2023-07-13T03:16:33;101231.69;;;17.73;93.02
31062;BME280;17724;53.546;9.974;2023-07-13T03:20:34;101231.69;;;17.73;92.86
31062;BME280;17724;53.546;9.974;2023-07-13T03:24:35;101224.13;;;17.79;92.53
31062;BME280;17724;53.546;9.974;2023-07-13T03:28:39;101224.97;;;17.80;92.12
31062;BME280;17724;53.546;9.974;2023-07-13T03:32:40;101232.06;;;17.91;92.62
31062;BME280;17724;53.546;9.974;2023-07-13T03:36:40;101234.25;;;17.94;92.35
31062;BME280;17724;53.546;9.974;2023-07-13T03:40:44;101232.66;;;17.88;92.15
31062;BME280;17724;53.546;9.974;2023-07-13T03:44:46;101227.09;;;17.88;91.68
31062;BME280;17724;53.546;9.974;2023-07-13T03:48:52;101221.56;;;17.83;91.14
31062;BME280;17724;53.546;9.974;2023-07-13T03:52:53;101234.06;;;17.85;90.38
31062;BME280;17724;53.546;9.974;2023-07-13T03:56:54;101240.41;;;17.91;89.31
31062;BME280;17724;53.546;9.974;2023-07-13T04:00:56;101252.50;;;17.81;89.16
31062;BME280;17724;53.546;9.974;2023-07-13T04:04:57;101244.84;;;17.92;88.51
31062;BME280;17724;53.546;9.974;2023-07-13T04:09:00;101242.13;;;17.87;88.26
31062;BME280;17724;53.546;9.974;2023-07-13T04:13:01;101252.38;;;17.91;89.07
31062;BME280;17724;53.546;9.974;2023-07-13T04:17:01;101246.84;;;17.86;89.22
31062;BME280;17724;53.546;9.974;2023-07-13T04:21:02;101248.94;;;17.76;89.52
31062;BME280;17724;53.546;9.974;2023-07-13T04:25:03;101241.13;;;17.78;89.92
31062;BME280;17724;53.546;9.974;2023-07-13T04:29:06;101240.59;;;17.70;90.35
31062;BME280;17724;53.546;9.974;2023-07-13T04:33:07;101244.38;;;17.85;91.37
31062;BME280;17724;53.546;9.974;2023-07-13T04:37:08;101231.28;;;17.85;90.09
31062;BME280;17724;53.546;9.974;2023-07-13T04:41:09;101238.22;;;17.88;90.59
31062;BME280;17724;53.546;9.974;2023-07-13T04:45:11;101251.91;;;17.84;89.60
31062;BME280;17724;53.546;9.974;2023-07-13T04:49:12;101256.34;;;17.85;89.64
31062;BME280;17724;53.546;9.974;2023-07-13T04:53:12;101249.38;;;18.07;89.24
31062;BME280;17724;53.546;9.974;2023-07-13T04:57:13;101259.94;;;18.10;89.49
31062;BME280;17724;53.546;9.974;2023-07-13T05:01:14;101247.38;;;18.12;89.20
31062;BME280;17724;53.546;9.974;2023-07-13T05:05:14;101245.81;;;18.25;88.32
31062;BME280;17724;53.546;9.974;2023-07-13T05:09:15;101266.44;;;18.24;88.10
31062;BME280;17724;53.546;9.974;2023-07-13T05:13:15;101265.19;;;18.35;87.63
31062;BME280;17724;53.546;9.974;2023-07-13T05:17:16;101267.34;;;18.38;88.03
31062;BME280;17724;53.546;9.974;2023-07-13T05:21:16;101269.63;;;18.55;87.72
31062;BME280;17724;53.546;9.974;2023-07-13T05:25:17;101271.50;;;18.41;87.74
31062;BME280;17724;53.546;9.974;2023-07-13T05:29:17;101276.19;;;18.64;87.99
31062;BME280;17724;53.546;9.974;2023-07-13T05:33:18;101280.91;;;18.64;87.84
31062;BME280;17724;53.546;9.974;2023-07-13T05:37:18;101285.03;;;18.72;88.21
31062;BME280;17724;53.546;9.974;2023-07-13T05:41:19;101282.56;;;18.65;88.38
31062;BME280;17724;53.546;9.974;2023-07-13T05:45:19;101283.81;;;18.78;89.09
31062;BME280;17724;53.546;9.974;2023-07-13T05:49:20;101275.81;;;18.71;89.03
31062;BME280;17724;53.546;9.974;2023-07-13T05:53:21;101281.84;;;18.59;89.46
31062;BME280;17724;53.546;9.974;2023-07-13T05:57:21;101284.13;;;18.76;90.29
31062;BME280;17724;53.546;9.974;2023-07-13T06:01:21;101287.78;;;18.90;89.20
31062;BME280;17724;53.546;9.974;2023-07-13T06:05:23;101292.16;;;18.78;89.95
31062;BME280;17724;53.546;9.974;2023-07-13T06:09:24;101299.59;;;19.01;89.32
31062;BME280;17724;53.546;9.974;2023-07-13T06:13:24;101291.72;;;18.89;89.52
31062;BME280;17724;53.546;9.974;2023-07-13T06:17:25;101292.69;;;18.80;89.97
31062;BME280;17724;53.546;9.974;2023-07-13T06:21:25;101298.28;;;18.80;89.81
31062;BME280;17724;53.546;9.974;2023-07-13T06:25:26;101304.53;;;18.72;89.67
31062;BME280;17724;53.546;9.974;2023-07-13T06:29:27;101301.13;;;18.93;89.97
31062;BME280;17724;53.546;9.974;2023-07-13T06:33:28;101302.75;;;18.94;89.71
31062;BME280;17724;53.546;9.974;2023-07-13T06:37:29;101306.44;;;19.09;90.24
31062;BME280;17724;53.546;9.974;2023-07-13T06:41:29;101296.97;;;18.91;90.20
31062;BME280;17724;53.546;9.974;2023-07-13T06:45:36;101313.53;;;18.82;90.00
31062;BME280;17724;53.546;9.974;2023-07-13T06:49:40;101318.00;;;18.83;89.58
31062;BME280;17724;53.546;9.974;2023-07-13T06:53:41;101313.25;;;18.84;90.56
31062;BME280;17724;53.546;9.974;2023-07-13T06:57:43;101314.53;;;18.91;90.22
31062;BME280;17724;53.546;9.974;2023-07-13T07:01:44;101316.69;;;19.13;89.96
31062;BME280;17724;53.546;9.974;2023-07-13T07:05:44;101321.56;;;19.22;89.60
31062;BME280;17724;53.546;9.974;2023-07-13T07:09:45;101315.53;;;19.33;88.80
31062;BME280;17724;53.546;9.974;2023-07-13T07:13:45;101330.22;;;19.39;88.24
31062;BME280;17724;53.546;9.974;2023-07-13T07:17:46;101327.47;;;19.53;88.12
31062;BME280;17724;53.546;9.974;2023-07-13T07:21:46;101330.03;;;19.49;88.22
31062;BME280;17724;53.546;9.974;2023-07-13T07:25:47;101333.31;;;19.70;87.85
31062;BME280;17724;53.546;9.974;2023-07-13T07:29:48;101316.06;;;19.82;86.69
31062;BME280;17724;53.546;9.974;2023-07-13T07:33:48;101332.31;;;19.80;85.77
31062;BME280;17724;53.546;9.974;2023-07-13T07:37:50;101329.97;;;19.87;85.92
31062;BME280;17724;53.546;9.974;2023-07-13T07:41:50;101341.13;;;19.87;86.15
31062;BME280;17724;53.546;9.974;2023-07-13T07:45:50;101338.53;;;20.04;86.36
31062;BME280;17724;53.546;9.974;2023-07-13T07:49:51;101342.34;;;19.94;86.15
31062;BME280;17724;53.546;9.974;2023-07-13T07:53:51;101340.81;;;20.02;85.68
31062;BME280;17724;53.546;9.974;2023-07-13T07:57:52;101338.75;;;20.22;84.63
31062;BME280;17724;53.546;9.974;2023-07-13T08:01:53;101328.28;;;20.41;85.20
31062;BME280;17724;53.546;9.974;2023-07-13T08:05:53;101320.66;;;20.60;84.56
31062;BME280;17724;53.546;9.974;2023-07-13T08:09:54;101327.53;;;20.90;82.31
31062;BME280;17724;53.546;9.974;2023-07-13T08:13:55;101339.03;;;20.75;81.21
31062;BME280;17724;53.546;9.974;2023-07-13T08:17:55;101329.84;;;20.97;81.56
31062;BME280;17724;53.546;9.974;2023-07-13T08:21:56;101322.94;;;20.95;82.51
31062;BME280;17724;53.546;9.974;2023-07-13T08:25:56;101332.91;;;21.09;78.38
31062;BME280;17724;53.546;9.974;2023-07-13T08:29:57;101333.63;;;21.15;78.04
31062;BME280;17724;53.546;9.974;2023-07-13T08:33:58;101337.28;;;21.38;77.49
31062;BME280;17724;53.546;9.974;2023-07-13T08:37:58;101336.72;;;20.91;78.15
31062;BME280;17724;53.546;9.974;2023-07-13T08:42:04;101332.16;;;20.95;78.54
31062;BME280;17724;53.546;9.974;2023-07-13T08:46:09;101333.31;;;21.16;78.70
31062;BME280;17724;53.546;9.974;2023-07-13T08:50:15;101351.22;;;21.52;77.10
31062;BME280;17724;53.546;9.974;2023-07-13T08:54:25;101341.81;;;21.48;78.45
31062;BME280;17724;53.546;9.974;2023-07-13T08:58:28;101345.09;;;21.27;76.82
31062;BME280;17724;53.546;9.974;2023-07-13T09:02:45;101344.38;;;20.99;77.83
31062;BME280;17724;53.546;9.974;2023-07-13T09:06:59;101349.81;;;21.40;74.88
31062;BME280;17724;53.546;9.974;2023-07-13T09:15:32;101350.56;;;21.86;70.65
31062;BME280;17724;53.546;9.974;2023-07-13T09:19:35;101351.78;;;22.25;71.19
31062;BME280;17724;53.546;9.974;2023-07-13T09:23:36;101356.19;;;22.66;67.33
31062;BME280;17724;53.546;9.974;2023-07-13T09:27:43;101352.88;;;21.84;67.48
31062;BME280;17724;53.546;9.974;2023-07-13T09:31:49;101359.34;;;22.16;65.60
31062;BME280;17724;53.546;9.974;2023-07-13T09:35:53;101352.31;;;22.27;66.75
31062;BME280;17724;53.546;9.974;2023-07-13T09:39:54;101337.88;;;22.51;65.92
31062;BME280;17724;53.546;9.974;2023-07-13T09:44:09;101356.56;;;22.90;65.72
31062;BME280;17724;53.546;9.974;2023-07-13T09:48:14;101360.22;;;23.17;62.57
31062;BME280;17724;53.546;9.974;2023-07-13T09:52:15;101360.06;;;22.96;65.92
31062;BME280;17724;53.546;9.974;2023-07-13T09:56:25;101364.19;;;23.16;65.92
31062;BME280;17724;53.546;9.974;2023-07-13T10:00:29;101365.84;;;23.08;61.65
31062;BME280;17724;53.546;9.974;2023-07-13T10:04:33;101353.41;;;23.70;60.26
31062;BME280;17724;53.546;9.974;2023-07-13T10:08:35;101356.59;;;23.42;59.71
31062;BME280;17724;53.546;9.974;2023-07-13T10:12:37;101355.25;;;22.87;58.81
31062;BME280;17724;53.546;9.974;2023-07-13T10:16:39;101359.72;;;23.06;61.96
31062;BME280;17724;53.546;9.974;2023-07-13T10:20:43;101350.06;;;22.55;61.65
31062;BME280;17724;53.546;9.974;2023-07-13T10:24:44;101332.16;;;23.25;61.77
31062;BME280;17724;53.546;9.974;2023-07-13T10:28:47;101348.84;;;22.96;59.09
31062;BME280;17724;53.546;9.974;2023-07-13T10:32:50;101342.00;;;23.57;58.87
31062;BME280;17724;53.546;9.974;2023-07-13T10:36:51;101341.22;;;23.40;55.75
31062;BME280;17724;53.546;9.974;2023-07-13T10:41:00;101342.91;;;23.23;57.12
31062;BME280;17724;53.546;9.974;2023-07-13T10:45:08;101352.81;;;23.03;56.17
31062;BME280;17724;53.546;9.974;2023-07-13T10:49:12;101314.81;;;23.41;56.98
31062;BME280;17724;53.546;9.974;2023-07-13T10:53:22;101333.97;;;23.39;54.47
31062;BME280;17724;53.546;9.974;2023-07-13T10:57:27;101333.25;;;24.23;53.51
31062;BME280;17724;53.546;9.974;2023-07-13T11:01:40;101321.16;;;24.82;50.61
31062;BME280;17724;53.546;9.974;2023-07-13T11:05:41;101337.47;;;25.51;49.34
31062;BME280;17724;53.546;9.974;2023-07-13T11:09:41;101339.00;;;25.94;47.48
31062;BME280;17724;53.546;9.974;2023-07-13T11:17:53;101324.34;;;28.85;42.77
31062;BME280;17724;53.546;9.974;2023-07-13T11:31:12;101314.63;;;25.32;45.81
31062;BME280;17724;53.546;9.974;2023-07-13T11:35:21;101320.72;;;24.50;47.70
31062;BME280;17724;53.546;9.974;2023-07-13T11:39:34;101328.34;;;24.50;47.97
31062;BME280;17724;53.546;9.974;2023-07-13T11:43:35;101321.47;;;24.30;47.45
31062;BME280;17724;53.546;9.974;2023-07-13T11:47:40;101326.06;;;23.96;48.19
31062;BME280;17724;53.546;9.974;2023-07-13T11:51:40;101324.19;;;24.18;49.38
31062;BME280;17724;53.546;9.974;2023-07-13T11:55:42;101338.97;;;24.36;49.14
31062;BME280;17724;53.546;9.974;2023-07-13T11:59:43;101335.84;;;24.28;49.79
31062;BME280;17724;53.546;9.974;2023-07-13T12:03:44;101325.56;;;24.41;49.34
31062;BME280;17724;53.546;9.974;2023-07-13T12:07:47;101333.72;;;24.25;51.05
31062;BME280;17724;53.546;9.974;2023-07-13T12:11:48;101325.44;;;23.91;51.29
31062;BME280;17724;53.546;9.974;2023-07-13T12:15:48;101342.00;;;23.57;51.40
31062;BME280;17724;53.546;9.974;2023-07-13T12:19:50;101421.94;;;22.51;56.92
31062;BME280;17724;53.546;9.974;2023-07-13T12:23:51;101424.78;;;21.16;72.21
31062;BME280;17724;53.546;9.974;2023-07-13T12:27:52;101441.00;;;20.78;80.96
31062;BME280;17724;53.546;9.974;2023-07-13T12:31:52;101430.78;;;20.59;85.51
31062;BME280;17724;53.546;9.974;2023-07-13T12:35:53;101443.00;;;20.63;87.66
31062;BME280;17724;53.546;9.974;2023-07-13T12:39:54;101451.38;;;20.63;84.29
31062;BME280;17724;53.546;9.974;2023-07-13T12:43:55;101441.13;;;20.59;86.70
31062;BME280;17724;53.546;9.974;2023-07-13T12:47:58;101469.78;;;20.64;91.17
31062;BME280;17724;53.546;9.974;2023-07-13T12:52:09;101484.28;;;20.66;83.37
31062;BME280;17724;53.546;9.974;2023-07-13T12:56:22;101482.97;;;19.99;84.45
31062;BME280;17724;53.546;9.974;2023-07-13T13:00:40;101490.94;;;20.24;87.81
31062;BME280;17724;53.546;9.974;2023-07-13T13:04:41;101499.00;;;20.26;84.68
31062;BME280;17724;53.546;9.974;2023-07-13T13:08:45;101506.09;;;20.18;84.40
31062;BME280;17724;53.546;9.974;2023-07-13T13:12:46;101491.56;;;20.02;85.10
31062;BME280;17724;53.546;9.974;2023-07-13T13:16:49;101504.72;;;20.02;83.88
31062;BME280;17724;53.546;9.974;2023-07-13T13:20:50;101496.53;;;19.91;85.01
31062;BME280;17724;53.546;9.974;2023-07-13T13:24:51;101496.41;;;20.15;82.99
31062;BME280;17724;53.546;9.974;2023-07-13T13:28:51;101496.81;;;20.55;82.87
31062;BME280;17724;53.546;9.974;2023-07-13T13:32:52;101486.06;;;20.30;82.18
31062;BME280;17724;53.546;9.974;2023-07-13T13:36:54;101512.19;;;20.39;80.00
31062;BME280;17724;53.546;9.974;2023-07-13T13:40:55;101505.47;;;20.54;81.48
31062;BME280;17724;53.546;9.974;2023-07-13T13:44:56;101500.84;;;20.77;79.08
31062;BME280;17724;53.546;9.974;2023-07-13T13:48:57;101511.50;;;21.02;78.02
31062;BME280;17724;53.546;9.974;2023-07-13T13:52:58;101511.72;;;20.78;75.68
31062;BME280;17724;53.546;9.974;2023-07-13T13:56:59;101514.41;;;20.70;75.34
31062;BME280;17724;53.546;9.974;2023-07-13T14:00:59;101511.72;;;20.64;74.19
31062;BME280;17724;53.546;9.974;2023-07-13T14:05:03;101507.06;;;21.01;77.47
31062;BME280;17724;53.546;9.974;2023-07-13T14:09:10;101508.19;;;21.14;74.83
31062;BME280;17724;53.546;9.974;2023-07-13T14:13:19;101506.28;;;21.51;75.44
31062;BME280;17724;53.546;9.974;2023-07-13T14:17:23;101493.94;;;21.52;72.76
31062;BME280;17724;53.546;9.974;2023-07-13T14:21:24;101500.88;;;21.54;71.91
31062;BME280;17724;53.546;9.974;2023-07-13T14:25:27;101485.44;;;21.57;72.33
31062;BME280;17724;53.546;9.974;2023-07-13T14:29:28;101515.81;;;21.50;69.81
31062;BME280;17724;53.546;9.974;2023-07-13T14:33:28;101510.06;;;21.32;73.43
31062;BME280;17724;53.546;9.974;2023-07-13T14:37:30;101509.78;;;21.56;72.36
31062;BME280;17724;53.546;9.974;2023-07-13T14:41:30;101504.94;;;21.48;71.88
31062;BME280;17724;53.546;9.974;2023-07-13T14:45:31;101508.41;;;21.68;72.44
31062;BME280;17724;53.546;9.974;2023-07-13T14:49:35;101497.84;;;21.64;71.79
31062;BME280;17724;53.546;9.974;2023-07-13T14:53:36;101492.84;;;21.39;72.50
31062;BME280;17724;53.546;9.974;2023-07-13T14:57:38;101508.22;;;21.64;75.69
31062;BME280;17724;53.546;9.974;2023-07-13T15:01:40;101510.66;;;21.43;75.10
31062;BME280;17724;53.546;9.974;2023-07-13T15:05:40;101501.72;;;21.55;77.18
31062;BME280;17724;53.546;9.974;2023-07-13T15:09:41;101510.25;;;21.36;76.78
31062;BME280;17724;53.546;9.974;2023-07-13T15:13:42;101527.56;;;21.74;76.12
31062;BME280;17724;53.546;9.974;2023-07-13T15:17:46;101515.44;;;21.79;76.59
31062;BME280;17724;53.546;9.974;2023-07-13T15:21:48;101514.97;;;21.85;74.77
31062;BME280;17724;53.546;9.974;2023-07-13T15:25:49;101506.09;;;21.70;74.07
31062;BME280;17724;53.546;9.974;2023-07-13T15:29:49;101512.94;;;21.27;69.95
31062;BME280;17724;53.546;9.974;2023-07-13T15:33:51;101507.47;;;21.36;70.92
31062;BME280;17724;53.546;9.974;2023-07-13T15:37:53;101494.06;;;21.47;71.25
31062;BME280;17724;53.546;9.974;2023-07-13T15:41:54;101513.84;;;21.50;70.45
31062;BME280;17724;53.546;9.974;2023-07-13T15:45:55;101510.75;;;21.74;71.58
31062;BME280;17724;53.546;9.974;2023-07-13T15:49:55;101516.69;;;21.36;71.55
31062;BME280;17724;53.546;9.974;2023-07-13T15:53:59;101518.09;;;21.48;71.05
31062;BME280;17724;53.546;9.974;2023-07-13T15:58:04;101511.09;;;21.23;68.96
31062;BME280;17724;53.546;9.974;2023-07-13T16:02:18;101519.91;;;21.66;70.05
31062;BME280;17724;53.546;9.974;2023-07-13T16:10:32;101516.00;;;21.89;67.21
31062;BME280;17724;53.546;9.974;2023-07-13T16:14:36;101527.53;;;21.38;68.71
31062;BME280;17724;53.546;9.974;2023-07-13T16:18:36;101525.97;;;21.59;68.96
31062;BME280;17724;53.546;9.974;2023-07-13T16:22:37;101528.56;;;21.56;68.38
31062;BME280;17724;53.546;9.974;2023-07-13T16:26:39;101530.88;;;21.76;68.73
31062;BME280;17724;53.546;9.974;2023-07-13T16:30:40;101531.31;;;21.70;67.47
31062;BME280;17724;53.546;9.974;2023-07-13T16:34:43;101535.31;;;21.55;66.88
31062;BME280;17724;53.546;9.974;2023-07-13T16:38:44;101539.47;;;21.44;67.94
31062;BME280;17724;53.546;9.974;2023-07-13T16:42:45;101527.38;;;21.07;69.63
31062;BME280;17724;53.546;9.974;2023-07-13T16:46:51;101531.69;;;21.27;72.09
31062;BME280;17724;53.546;9.974;2023-07-13T16:50:57;101527.47;;;21.15;69.13
31062;BME280;17724;53.546;9.974;2023-07-13T16:54:57;101519.19;;;20.97;71.23
31062;BME280;17724;53.546;9.974;2023-07-13T16:58:58;101535.13;;;20.96;71.29
31062;BME280;17724;53.546;9.974;2023-07-13T17:03:01;101536.56;;;20.94;70.82
31062;BME280;17724;53.546;9.974;2023-07-13T17:07:03;101535.47;;;20.95;70.37
31062;BME280;17724;53.546;9.974;2023-07-13T17:11:05;101536.78;;;21.11;69.82
31062;BME280;17724;53.546;9.974;2023-07-13T17:15:09;101535.47;;;20.95;72.70
31062;BME280;17724;53.546;9.974;2023-07-13T17:19:11;101545.69;;;21.27;73.20
31062;BME280;17724;53.546;9.974;2023-07-13T17:23:15;101547.66;;;21.12;71.27
31062;BME280;17724;53.546;9.974;2023-07-13T17:27:16;101561.19;;;21.60;72.61
31062;BME280;17724;53.546;9.974;2023-07-13T17:31:19;101545.91;;;21.16;71.42
31062;BME280;17724;53.546;9.974;2023-07-13T17:35:29;101560.22;;;21.15;70.44
31062;BME280;17724;53.546;9.974;2023-07-13T17:39:30;101547.25;;;21.05;72.07
31062;BME280;17724;53.546;9.974;2023-07-13T17:43:31;101551.28;;;21.27;72.08
31062;BME280;17724;53.546;9.974;2023-07-13T17:47:32;101557.19;;;20.84;71.62
31062;BME280;17724;53.546;9.974;2023-07-13T17:51:32;101553.25;;;21.12;71.84
31062;BME280;17724;53.546;9.974;2023-07-13T17:55:33;101560.72;;;21.17;73.92
31062;BME280;17724;53.546;9.974;2023-07-13T17:59:34;101557.91;;;21.17;71.94
31062;BME280;17724;53.546;9.974;2023-07-13T18:03:38;101565.28;;;20.99;69.66
31062;BME280;17724;53.546;9.974;2023-07-13T18:07:44;101571.56;;;20.63;66.18
31062;BME280;17724;53.546;9.974;2023-07-13T18:11:47;101570.03;;;20.71;68.28
31062;BME280;17724;53.546;9.974;2023-07-13T18:15:48;101576.66;;;20.75;67.90
31062;BME280;17724;53.546;9.974;2023-07-13T18:19:51;101575.22;;;20.91;70.86
31062;BME280;17724;53.546;9.974;2023-07-13T18:23:52;101570.09;;;20.66;70.53
31062;BME280;17724;53.546;9.974;2023-07-13T18:27:54;101564.53;;;20.80;73.49
31062;BME280;17724;53.546;9.974;2023-07-13T18:31:55;101570.66;;;20.96;73.09
31062;BME280;17724;53.546;9.974;2023-07-13T18:35:59;101564.44;;;20.85;74.01
31062;BME280;17724;53.546;9.974;2023-07-13T18:40:00;101571.94;;;20.57;73.58
31062;BME280;17724;53.546;9.974;2023-07-13T18:44:00;101570.09;;;20.33;73.84
31062;BME280;17724;53.546;9.974;2023-07-13T18:48:01;101590.59;;;20.42;72.67
31062;BME280;17724;53.546;9.974;2023-07-13T18:52:03;101587.78;;;20.29;72.99
31062;BME280;17724;53.546;9.974;2023-07-13T18:56:05;101584.13;;;20.47;75.52
31062;BME280;17724;53.546;9.974;2023-07-13T19:00:06;101593.09;;;20.44;77.37
31062;BME280;17724;53.546;9.974;2023-07-13T19:04:27;101611.63;;;20.21;84.20
31062;BME280;17724;53.546;9.974;2023-07-13T19:08:28;101604.59;;;19.24;88.52
31062;BME280;17724;53.546;9.974;2023-07-13T19:12:30;101608.06;;;19.35;93.53
31062;BME280;17724;53.546;9.974;2023-07-13T19:16:31;101614.78;;;19.34;97.08
31062;BME280;17724;53.546;9.974;2023-07-13T19:20:32;101621.75;;;19.36;95.04
31062;BME280;17724;53.546;9.974;2023-07-13T19:24:33;101628.44;;;19.35;94.03
31062;BME280;17724;53.546;9.974;2023-07-13T19:28:39;101627.16;;;19.28;93.60
31062;BME280;17724;53.546;9.974;2023-07-13T19:32:41;101625.50;;;18.98;89.45
31062;BME280;17724;53.546;9.974;2023-07-13T19:36:43;101620.44;;;19.05;89.84
31062;BME280;17724;53.546;9.974;2023-07-13T19:40:44;101636.75;;;19.16;90.99
31062;BME280;17724;53.546;9.974;2023-07-13T19:44:44;101636.19;;;19.14;86.93
31062;BME280;17724;53.546;9.974;2023-07-13T19:48:45;101636.41;;;19.23;89.90
31062;BME280;17724;53.546;9.974;2023-07-13T19:52:49;101641.97;;;19.23;89.55
31062;BME280;17724;53.546;9.974;2023-07-13T19:56:50;101646.53;;;19.14;88.68
31062;BME280;17724;53.546;9.974;2023-07-13T20:00:51;101658.75;;;19.18;89.82
31062;BME280;17724;53.546;9.974;2023-07-13T20:04:51;101651.75;;;19.20;87.76
31062;BME280;17724;53.546;9.974;2023-07-13T20:08:52;101660.72;;;19.41;87.52
31062;BME280;17724;53.546;9.974;2023-07-13T20:12:53;101659.53;;;19.24;87.33
31062;BME280;17724;53.546;9.974;2023-07-13T20:17:02;101665.13;;;19.24;89.20
31062;BME280;17724;53.546;9.974;2023-07-13T20:21:03;101661.94;;;19.06;86.93
31062;BME280;17724;53.546;9.974;2023-07-13T20:25:14;101679.16;;;19.13;87.24
31062;BME280;17724;53.546;9.974;2023-07-13T20:29:16;101674.91;;;19.21;87.95
31062;BME280;17724;53.546;9.974;2023-07-13T20:33:20;101670.56;;;19.10;89.41
31062;BME280;17724;53.546;9.974;2023-07-13T20:37:37;101683.34;;;19.11;88.35
31062;BME280;17724;53.546;9.974;2023-07-13T20:41:38;101681.94;;;19.13;88.18
31062;BME280;17724;53.546;9.974;2023-07-13T20:45:39;101672.00;;;19.07;87.08
31062;BME280;17724;53.546;9.974;2023-07-13T20:49:40;101676.91;;;19.15;87.21
31062;BME280;17724;53.546;9.974;2023-07-13T20:53:41;101685.78;;;18.93;87.67
31062;BME280;17724;53.546;9.974;2023-07-13T20:57:42;101690.66;;;19.07;88.71
31062;BME280;17724;53.546;9.974;2023-07-13T21:01:43;101698.78;;;19.03;88.94
31062;BME280;17724;53.546;9.974;2023-07-13T21:05:44;101702.56;;;18.88;90.36
31062;BME280;17724;53.546;9.974;2023-07-13T21:09:44;101695.06;;;18.84;90.05
31062;BME280;17724;53.546;9.974;2023-07-13T21:13:45;101711.75;;;18.89;90.68
31062;BME280;17724;53.546;9.974;2023-07-13T21:17:48;101709.38;;;18.67;93.27
31062;BME280;17724;53.546;9.974;2023-07-13T21:21:49;101713.69;;;18.88;93.48
31062;BME280;17724;53.546;9.974;2023-07-13T21:25:49;101717.88;;;18.86;92.75
31062;BME280;17724;53.546;9.974;2023-07-13T21:29:50;101724.66;;;18.75;93.71